Corrego do Ouro, Brazil
Current Conditions -  °F | °C
As of 11:00 AM on Monday 22 Dec 2014 (Local Time) from SBGO Reporting Station
Broken Clouds Broken Clouds  
Wind Chill: 77°   Ceiling: 9000
Heat Index: 79°   Visibility: 6mi
Dew Point: 66°   Wind: 9mph
Humidity: 69%   Direction: 340°NNW
Pressure: 30.06"   Gusts: NA
Location:  16.29°S, 50.55°W
Report Text: SBGO 221300Z 34008KT 9999 SCT020 BKN090 25/19 Q1018
Loading
Personal Weather Stations






























Interactive Weather Map New forecast layout! Learn more

10-Day Weather Forecast

Advertisements
Track Severe Weather on mobile